createdAt,value
2018-10-09T00:01:48.932Z,8.36
2018-10-09T00:04:18.695Z,7.70
2018-10-09T00:06:48.380Z,7.48
2018-10-09T00:09:48.230Z,7.70
2018-10-09T00:15:14.168Z,8.70
2018-10-09T00:17:43.867Z,8.85
2018-10-09T00:20:17.584Z,9.01
2018-10-09T00:22:47.454Z,8.62
2018-10-09T00:25:48.062Z,8.03
2018-10-09T00:28:49.339Z,7.64
2018-10-09T00:31:19.045Z,7.96
2018-10-09T00:33:48.721Z,8.50
2018-10-09T00:36:19.464Z,8.86
2018-10-09T00:53:02.739Z,7.58
2018-10-09T00:55:32.550Z,7.58
2018-10-09T00:58:02.294Z,7.88
2018-10-09T01:00:42.585Z,8.23
2018-10-09T01:03:41.231Z,8.53
2018-10-09T01:06:10.958Z,8.77
2018-10-09T01:08:40.859Z,8.88
2018-10-09T01:11:11.026Z,8.41
2018-10-09T01:13:52.662Z,7.88
2018-10-09T01:16:22.456Z,8.01
2018-10-09T01:18:52.122Z,7.47
2018-10-09T01:21:21.731Z,7.36
2018-10-09T01:24:21.255Z,7.26
2018-10-09T01:26:54.734Z,7.55
2018-10-09T01:29:24.451Z,7.73
2018-10-09T01:31:54.206Z,7.77
2018-10-09T01:34:23.898Z,7.69
2018-10-09T01:36:53.675Z,8.17
2018-10-09T01:39:59.663Z,8.46
2018-10-09T01:42:29.377Z,7.82
2018-10-09T01:44:59.036Z,7.33
2018-10-09T01:47:55.050Z,7.25
2018-10-09T01:50:24.727Z,7.06
2018-10-09T01:53:30.986Z,6.90
2018-10-09T01:56:00.837Z,6.96
2018-10-09T01:58:30.714Z,7.01
2018-10-09T02:01:00.424Z,6.99
2018-10-09T02:07:37.561Z,7.94
2018-10-09T02:10:07.266Z,8.25
2018-10-09T02:12:36.997Z,8.37
2018-10-09T02:15:06.976Z,8.37
2018-10-09T02:17:36.696Z,7.29
2018-10-09T02:20:06.364Z,7.08
2018-10-09T02:22:36.018Z,6.77
2018-10-09T02:25:05.730Z,6.76
2018-10-09T02:28:13.939Z,6.87
2018-10-09T02:30:43.650Z,7.01
2018-10-09T02:33:34.098Z,7.08
2018-10-09T02:36:03.714Z,6.85
2018-10-09T02:39:09.739Z,7.25
2018-10-09T02:42:02.869Z,7.72
2018-10-09T02:44:32.490Z,7.90
2018-10-09T02:47:13.238Z,7.67
2018-10-09T02:49:43.137Z,7.56
2018-10-09T02:52:12.747Z,6.93
2018-10-09T02:54:42.429Z,6.78
2018-10-09T02:57:22.420Z,7.00
2018-10-09T02:59:55.480Z,6.73
2018-10-09T03:02:25.226Z,6.56
2018-10-09T03:04:54.930Z,6.76
2018-10-09T03:07:24.678Z,6.42
2018-10-09T03:09:54.342Z,6.43
2018-10-09T03:12:24.027Z,6.89
2018-10-09T03:14:53.914Z,7.05
2018-10-09T03:17:23.612Z,7.46
2018-10-09T03:19:53.313Z,7.68
2018-10-09T03:22:23.089Z,7.06
2018-10-09T03:24:52.739Z,6.77
2018-10-09T03:27:22.417Z,7.14
2018-10-09T03:29:52.110Z,7.36
2018-10-09T03:32:21.715Z,6.66
2018-10-09T03:37:40.689Z,6.95
2018-10-09T03:40:10.411Z,7.28
2018-10-09T03:42:40.039Z,6.78
2018-10-09T03:45:23.378Z,6.98
2018-10-09T03:47:53.334Z,6.89
2018-10-09T03:50:23.072Z,6.71
2018-10-09T03:52:55.798Z,7.03
2018-10-09T03:55:25.453Z,6.82
2018-10-09T03:57:55.012Z,7.04
2018-10-09T04:00:24.766Z,7.28
2018-10-09T04:02:54.424Z,7.09
2018-10-09T04:05:24.123Z,6.72
2018-10-09T04:07:53.820Z,7.17
2018-10-09T04:15:26.430Z,7.26
2018-10-09T04:17:56.122Z,6.03
2018-10-09T04:20:25.801Z,6.10
2018-10-09T04:22:55.498Z,6.56
2018-10-09T04:25:25.216Z,6.96
2018-10-09T04:28:20.982Z,6.30
2018-10-09T04:30:53.511Z,6.88
2018-10-09T04:33:23.442Z,7.13
2018-10-09T04:35:53.308Z,6.81
2018-10-09T04:38:24.038Z,6.71
2018-10-09T04:40:53.775Z,6.74
2018-10-09T04:43:23.951Z,6.79
2018-10-09T04:45:53.735Z,6.50
2018-10-09T04:48:23.455Z,6.76
2018-10-09T04:50:53.282Z,6.99
2018-10-09T04:53:23.622Z,7.20
2018-10-09T04:55:53.303Z,7.13
2018-10-09T04:58:22.974Z,7.20
2018-10-09T05:00:52.616Z,7.06
2018-10-09T05:03:22.433Z,6.75
2018-10-09T05:05:52.511Z,6.49
2018-10-09T05:08:22.133Z,6.39
2018-10-09T05:10:52.218Z,6.63
2018-10-09T05:13:22.144Z,6.72
2018-10-09T05:15:51.930Z,6.51
2018-10-09T05:18:21.601Z,6.37
2018-10-09T05:20:51.292Z,6.25
2018-10-09T05:23:21.038Z,6.24
2018-10-09T05:25:51.230Z,6.01
2018-10-09T05:28:22.301Z,6.45
2018-10-09T05:30:52.139Z,6.68
2018-10-09T05:33:21.913Z,6.04
2018-10-09T05:35:53.874Z,6.17
2018-10-09T05:38:23.903Z,6.06
2018-10-09T05:40:53.640Z,6.27
2018-10-09T05:43:37.625Z,6.82
2018-10-09T05:46:08.071Z,6.88
2018-10-09T05:48:37.751Z,6.36
2018-10-09T05:51:07.778Z,6.20
2018-10-09T05:53:37.522Z,6.37
2018-10-09T05:56:08.861Z,6.36
2018-10-09T05:58:38.572Z,6.33
2018-10-09T06:01:08.851Z,5.95
2018-10-09T06:03:38.542Z,6.38
2018-10-09T06:06:08.439Z,6.70
2018-10-09T06:08:39.095Z,6.92
2018-10-09T06:11:09.296Z,6.87
2018-10-09T06:13:38.962Z,6.41
2018-10-09T06:16:08.612Z,6.71
2018-10-09T06:18:38.297Z,6.58
2018-10-09T06:21:08.552Z,6.82
2018-10-09T06:23:38.187Z,6.39
2018-10-09T06:26:24.046Z,6.34
2018-10-09T06:28:53.711Z,6.56
2018-10-09T06:31:25.291Z,6.85
2018-10-09T06:33:55.042Z,6.91
2018-10-09T06:36:24.704Z,6.94
2018-10-09T06:38:54.543Z,7.03
2018-10-09T06:41:25.510Z,7.06
2018-10-09T06:43:55.407Z,7.06
2018-10-09T06:46:25.218Z,7.09
2018-10-09T06:48:55.113Z,7.13
2018-10-09T06:51:34.910Z,7.06
2018-10-09T06:54:05.060Z,6.86
2018-10-09T06:56:36.047Z,6.91
2018-10-09T06:59:32.424Z,6.91
2018-10-09T07:02:06.428Z,6.90
2018-10-09T07:04:36.507Z,7.05
2018-10-09T07:07:07.001Z,7.22
2018-10-09T07:09:36.985Z,7.33
2018-10-09T07:12:32.150Z,7.40
2018-10-09T07:15:02.227Z,7.38
2018-10-09T07:17:32.179Z,7.43
2018-10-09T07:20:02.061Z,7.41
2018-10-09T07:22:31.998Z,7.51
2018-10-09T07:25:01.939Z,7.59
2018-10-09T07:27:35.471Z,7.69
2018-10-09T07:30:06.286Z,7.74
2018-10-09T07:32:36.186Z,7.80
2018-10-09T07:35:33.580Z,7.84
2018-10-09T07:41:13.800Z,7.96
2018-10-09T07:43:43.844Z,7.91
2018-10-09T07:46:13.647Z,8.01
2018-10-09T07:49:35.933Z,8.02
2018-10-09T07:52:05.707Z,8.09
2018-10-09T07:54:43.450Z,8.16
2018-10-09T07:57:13.257Z,8.18
2018-10-09T08:01:24.100Z,8.19
2018-10-09T08:03:53.868Z,8.26
2018-10-09T08:06:23.652Z,8.36
2018-10-09T08:08:53.358Z,8.56
2018-10-09T08:11:23.181Z,8.57
2018-10-09T08:13:52.919Z,8.66
2018-10-09T08:16:22.833Z,8.86
2018-10-09T08:18:52.608Z,8.80
2018-10-09T08:21:22.313Z,8.93
2018-10-09T08:23:52.522Z,8.87
2018-10-09T08:26:22.319Z,8.96
2018-10-09T08:28:52.060Z,9.15
2018-10-09T08:31:21.768Z,8.95
2018-10-09T08:33:51.531Z,9.21
2018-10-09T08:36:21.326Z,9.32
2018-10-09T08:38:51.127Z,9.15
2018-10-09T08:41:21.020Z,9.12
2018-10-09T08:43:50.681Z,9.24
2018-10-09T08:46:20.725Z,9.12
2018-10-09T08:49:20.427Z,9.13
2018-10-09T08:52:13.561Z,9.40
2018-10-09T08:55:10.792Z,9.63
2018-10-09T08:57:40.504Z,9.53
2018-10-09T09:00:11.211Z,9.57
2018-10-09T09:02:40.933Z,9.55
2018-10-09T09:05:10.594Z,9.51
2018-10-09T09:10:58.883Z,9.74
2018-10-09T09:13:28.623Z,9.79
2018-10-09T09:16:05.590Z,10.44
2018-10-09T09:18:35.299Z,10.18
2018-10-09T09:21:05.117Z,10.25
2018-10-09T09:23:34.873Z,10.24
2018-10-09T09:26:04.667Z,10.35
2018-10-09T09:28:34.336Z,10.69
2018-10-09T09:31:04.034Z,11.59
2018-10-09T09:34:04.801Z,11.81
2018-10-09T09:36:34.516Z,11.96
2018-10-09T09:39:32.237Z,11.69
2018-10-09T09:42:01.992Z,11.47
2018-10-09T09:44:31.702Z,11.37
2018-10-09T09:47:01.422Z,11.49
2018-10-09T09:49:31.127Z,12.01
2018-10-09T09:52:00.896Z,12.66
2018-10-09T09:54:30.572Z,12.39
2018-10-09T09:57:05.791Z,12.47
2018-10-09T10:03:02.589Z,12.41
2018-10-09T10:05:32.356Z,12.37
2018-10-09T10:08:02.271Z,12.27
2018-10-09T10:10:31.925Z,12.38
2018-10-09T10:13:02.251Z,12.81
2018-10-09T10:15:35.707Z,13.10
2018-10-09T10:18:05.479Z,13.51
2018-10-09T10:20:35.216Z,13.22
2018-10-09T10:23:05.007Z,13.58
2018-10-09T10:50:34.566Z,14.32
2018-10-09T10:53:04.528Z,13.50
2018-10-09T10:55:48.696Z,13.41
2018-10-09T10:58:29.785Z,14.57
2018-10-09T11:01:01.745Z,15.00
2018-10-09T11:03:52.629Z,14.11
2018-10-09T11:06:22.481Z,14.19
2018-10-09T11:08:52.163Z,14.32
2018-10-09T11:11:21.886Z,14.03
2018-10-09T11:13:51.466Z,14.74
2018-10-09T11:16:21.056Z,15.95
2018-10-09T11:18:50.671Z,15.38
2018-10-09T11:21:20.509Z,15.62
2018-10-09T11:23:50.160Z,15.43
2018-10-09T11:26:21.415Z,14.84
2018-10-09T11:28:51.417Z,15.05
2018-10-09T11:31:21.078Z,16.37
2018-10-09T11:33:50.674Z,16.15
2018-10-09T11:36:51.214Z,15.70
2018-10-09T11:39:20.920Z,16.12
2018-10-09T11:41:50.583Z,15.61
2018-10-09T11:44:20.227Z,15.45
2018-10-09T11:46:49.954Z,15.71
2018-10-09T11:49:19.561Z,15.59
2018-10-09T11:55:18.946Z,16.61
2018-10-09T11:57:48.611Z,16.32
2018-10-09T12:00:18.375Z,16.70
2018-10-09T12:02:48.104Z,17.09
2018-10-09T12:05:17.703Z,17.25
2018-10-09T12:07:47.583Z,16.78
2018-10-09T12:10:17.251Z,16.92
2018-10-09T12:12:46.995Z,17.63
2018-10-09T12:15:16.679Z,17.92
2018-10-09T12:17:46.446Z,18.32
2018-10-09T12:20:16.074Z,17.64
2018-10-09T12:22:45.674Z,17.38
2018-10-09T12:25:15.351Z,17.48
2018-10-09T12:27:45.002Z,18.06
2018-10-09T12:30:14.639Z,18.05
2018-10-09T12:32:44.375Z,18.84
2018-10-09T12:35:14.020Z,18.77
2018-10-09T12:37:43.720Z,18.69
2018-10-09T12:40:13.367Z,18.08
2018-10-09T12:42:43.074Z,18.67
2018-10-09T12:45:12.751Z,18.81
2018-10-09T12:48:03.183Z,18.27
2018-10-09T12:50:32.841Z,18.50
2018-10-09T12:53:02.674Z,17.96
2018-10-09T12:55:35.981Z,18.48
2018-10-09T12:58:33.707Z,18.52
2018-10-09T13:01:04.791Z,18.36
2018-10-09T13:03:35.598Z,18.25
2018-10-09T13:06:05.272Z,18.57
2018-10-09T13:08:34.908Z,18.56
2018-10-09T13:11:23.292Z,18.83
2018-10-09T13:13:53.163Z,18.55
2018-10-09T13:16:22.907Z,18.54
2018-10-09T13:19:01.423Z,18.92
2018-10-09T13:21:31.514Z,18.86
2018-10-09T13:24:00.974Z,18.70
2018-10-09T13:26:30.643Z,18.43
2018-10-09T13:29:00.382Z,18.61
2018-10-09T13:31:30.147Z,18.72
2018-10-09T13:34:05.739Z,18.94
2018-10-09T13:36:35.631Z,18.84
2018-10-09T13:39:06.603Z,18.87
2018-10-09T13:41:36.264Z,19.55
2018-10-09T13:44:06.171Z,19.01
2018-10-09T13:47:04.450Z,19.62
2018-10-09T13:49:54.260Z,19.53
2018-10-09T13:54:11.304Z,19.26
2018-10-09T13:56:41.389Z,19.10
2018-10-09T13:59:11.435Z,19.53
2018-10-09T14:01:41.394Z,19.34
2018-10-09T14:04:20.042Z,19.49
2018-10-09T14:20:31.887Z,19.47
2018-10-09T14:23:22.620Z,19.98
2018-10-09T14:25:52.375Z,19.73
2018-10-09T14:28:22.043Z,19.38
2018-10-09T14:30:51.683Z,19.45
2018-10-09T14:33:21.286Z,19.90
2018-10-09T14:35:51.353Z,19.60
2018-10-09T14:38:20.946Z,19.51
2018-10-09T14:40:55.191Z,19.94
2018-10-09T14:43:24.941Z,19.74
2018-10-09T14:45:54.614Z,19.60
2018-10-09T14:48:49.366Z,19.52
2018-10-09T14:51:19.013Z,19.44
2018-10-09T14:53:48.784Z,19.60
2018-10-09T14:56:18.479Z,19.67
2018-10-09T14:58:48.138Z,19.82
2018-10-09T15:01:17.877Z,19.41
2018-10-09T15:03:54.187Z,19.63
2018-10-09T15:06:28.402Z,19.58
2018-10-09T15:09:16.004Z,19.58
2018-10-09T15:11:45.788Z,19.48
2018-10-09T15:14:15.411Z,19.34
2018-10-09T15:16:45.082Z,19.33
2018-10-09T15:19:15.028Z,19.15
2018-10-09T15:21:55.754Z,19.26
2018-10-09T15:24:25.420Z,19.21
2018-10-09T15:26:55.053Z,19.32
2018-10-09T15:29:24.651Z,19.41
2018-10-09T15:32:00.448Z,19.21
2018-10-09T15:34:41.764Z,19.09
2018-10-09T15:39:49.612Z,18.88
2018-10-09T15:42:19.355Z,19.00
2018-10-09T15:44:53.342Z,18.87
2018-10-09T15:47:29.244Z,18.81
2018-10-09T15:49:58.970Z,18.92
2018-10-09T15:52:28.626Z,18.90
2018-10-09T15:55:01.894Z,18.93
2018-10-09T15:57:31.635Z,18.75
2018-10-09T16:00:01.286Z,18.71
2018-10-09T16:02:30.961Z,18.66
2018-10-09T16:05:00.606Z,18.59
2018-10-09T16:07:30.363Z,18.57
2018-10-09T16:10:00.524Z,18.51
2018-10-09T16:12:30.135Z,18.48
2018-10-09T16:14:59.763Z,18.36
2018-10-09T16:17:30.560Z,18.30
2018-10-09T16:20:00.240Z,18.25
2018-10-09T16:22:29.900Z,18.17
2018-10-09T16:27:43.750Z,17.96
2018-10-09T16:30:13.529Z,17.97
2018-10-09T16:33:01.717Z,17.86
2018-10-09T16:35:31.420Z,17.83
2018-10-09T16:38:01.005Z,17.91
2018-10-09T16:40:31.581Z,17.92
2018-10-09T16:43:32.088Z,17.92
2018-10-09T16:46:01.757Z,17.80
2018-10-09T16:48:31.487Z,17.55
2018-10-09T16:51:01.253Z,17.44
2018-10-09T16:53:31.023Z,17.55
2018-10-09T16:56:00.748Z,17.57
2018-10-09T16:58:30.556Z,17.28
2018-10-09T17:01:17.026Z,16.86
2018-10-09T17:06:50.257Z,16.86
2018-10-09T17:09:21.783Z,16.84
2018-10-09T17:11:51.985Z,16.93
2018-10-09T17:14:22.119Z,16.97
2018-10-09T17:19:51.556Z,17.03
2018-10-09T17:22:22.305Z,17.05
2018-10-09T17:24:51.957Z,16.97
2018-10-09T17:27:21.586Z,16.49
2018-10-09T17:29:52.309Z,16.21
2018-10-09T17:32:22.010Z,16.24
2018-10-09T17:34:51.638Z,16.23
2018-10-09T17:37:21.348Z,16.39
2018-10-09T17:39:51.194Z,16.56
2018-10-09T17:42:21.917Z,16.57
2018-10-09T17:44:51.948Z,16.35
2018-10-09T17:47:21.984Z,16.01
2018-10-09T17:49:52.002Z,16.02
2018-10-09T17:52:22.025Z,15.61
2018-10-09T17:55:14.975Z,15.43
2018-10-09T17:57:45.106Z,15.31
2018-10-09T18:00:15.193Z,15.50
2018-10-09T18:02:51.428Z,15.40
2018-10-09T18:05:21.723Z,15.56
2018-10-09T18:07:56.882Z,15.86
2018-10-09T18:10:29.390Z,15.99
2018-10-09T18:12:59.619Z,16.03
2018-10-09T18:15:30.429Z,15.27
2018-10-09T18:18:00.667Z,15.19
2018-10-09T18:20:31.483Z,15.59
2018-10-09T18:23:11.091Z,15.16
2018-10-09T18:27:51.755Z,15.29
2018-10-09T18:30:29.065Z,15.27
2018-10-09T18:32:59.244Z,14.85
2018-10-09T18:35:53.509Z,14.94
2018-10-09T18:38:23.308Z,15.11
2018-10-09T18:40:53.279Z,15.03
2018-10-09T18:43:37.361Z,14.86
2018-10-09T18:46:26.366Z,14.52
2018-10-09T18:48:56.465Z,14.51
2018-10-09T18:51:39.630Z,14.67
2018-10-09T18:54:09.872Z,14.77
2018-10-09T18:56:40.344Z,14.46
2018-10-09T18:59:10.257Z,14.60
2018-10-09T19:01:40.496Z,14.81
2018-10-09T19:04:10.413Z,14.97
2018-10-09T19:06:47.298Z,14.84
2018-10-09T19:09:17.123Z,14.98
2018-10-09T19:11:47.010Z,14.37
2018-10-09T19:14:39.265Z,14.41
2018-10-09T19:17:11.541Z,14.12
2018-10-09T19:19:41.287Z,13.71
2018-10-09T19:22:39.609Z,13.76
2018-10-09T19:25:09.680Z,13.87
2018-10-09T19:27:39.807Z,14.14
2018-10-09T19:30:11.435Z,14.45
2018-10-09T19:32:41.494Z,14.36
2018-10-09T19:35:11.234Z,13.87
2018-10-09T19:37:41.064Z,13.64
2018-10-09T19:40:15.050Z,13.78
2018-10-09T19:42:44.880Z,13.78
2018-10-09T19:45:15.010Z,13.97
2018-10-09T19:47:44.995Z,13.91
2018-10-09T19:50:15.287Z,13.90
2018-10-09T19:52:45.160Z,13.95
2018-10-09T19:55:15.132Z,13.68
2018-10-09T19:57:44.853Z,13.77
2018-10-09T20:03:28.899Z,13.50
2018-10-09T20:06:19.115Z,13.22
2018-10-09T20:22:37.634Z,13.13
2018-10-09T20:25:07.620Z,13.17
2018-10-09T20:27:37.594Z,12.80
2018-10-09T20:30:31.880Z,12.67
2018-10-09T20:33:02.648Z,12.85
2018-10-09T20:35:33.030Z,12.90
2018-10-09T20:38:02.777Z,12.68
2018-10-09T20:40:40.154Z,12.51
2018-10-09T20:43:28.117Z,12.67
2018-10-09T20:45:57.861Z,12.83
2018-10-09T20:48:27.822Z,12.90
2018-10-09T20:50:57.731Z,12.56
2018-10-09T20:53:27.443Z,12.54
2018-10-09T20:55:57.167Z,12.80
2018-10-09T20:58:26.988Z,12.87
2018-10-09T21:00:56.920Z,12.43
2018-10-09T21:03:28.233Z,12.74
2018-10-09T21:06:22.240Z,12.63
2018-10-09T21:08:52.716Z,12.90
2018-10-09T21:11:52.259Z,12.85
2018-10-09T21:14:22.092Z,12.88
2018-10-09T21:16:52.778Z,12.71
2018-10-09T21:19:22.665Z,12.66
2018-10-09T21:21:56.072Z,12.06
2018-10-09T21:24:51.532Z,11.87
2018-10-09T21:27:22.297Z,12.10
2018-10-09T21:30:22.126Z,12.31
2018-10-09T21:33:22.426Z,12.37
2018-10-09T21:38:55.733Z,12.20
2018-10-09T21:41:27.637Z,12.26
2018-10-09T21:44:24.655Z,12.34
2018-10-09T21:49:55.231Z,11.98
2018-10-09T21:55:26.136Z,11.92
2018-10-09T21:57:56.667Z,11.56
2018-10-09T22:00:26.604Z,11.60
2018-10-09T22:02:56.377Z,11.91
2018-10-09T22:05:26.113Z,11.96
2018-10-09T22:07:55.895Z,11.83
2018-10-09T22:10:35.966Z,11.21
2018-10-09T22:13:05.968Z,11.15
2018-10-09T22:15:36.976Z,11.32
2018-10-09T22:18:06.735Z,11.60
2018-10-09T22:20:36.511Z,11.62
2018-10-09T22:26:06.872Z,11.33
2018-10-09T22:28:36.695Z,11.21
2018-10-09T22:31:06.544Z,10.85
2018-10-09T22:33:36.253Z,10.60
2018-10-09T22:36:18.583Z,10.69
2018-10-09T22:38:48.369Z,11.06
2018-10-09T22:41:18.353Z,11.29
2018-10-09T22:43:48.140Z,11.16
2018-10-09T22:46:18.615Z,10.82
2018-10-09T22:48:48.605Z,10.77
2018-10-09T22:54:28.242Z,11.02
2018-10-09T22:56:57.994Z,11.43
2018-10-09T22:59:28.065Z,11.36
2018-10-09T23:01:57.888Z,11.16
2018-10-09T23:04:27.622Z,11.25
2018-10-09T23:06:57.639Z,11.12
2018-10-09T23:09:27.312Z,10.82
2018-10-09T23:11:57.088Z,10.70
2018-10-09T23:14:26.881Z,10.37
2018-10-09T23:16:56.955Z,10.80
2018-10-09T23:19:26.787Z,10.95
2018-10-09T23:21:57.003Z,10.87
2018-10-09T23:24:26.816Z,10.66
2018-10-09T23:29:57.012Z,10.31
2018-10-09T23:32:26.814Z,10.40
2018-10-09T23:34:56.742Z,10.36
2018-10-09T23:37:26.561Z,10.58
2018-10-09T23:39:56.252Z,10.64
2018-10-09T23:42:26.131Z,10.67
2018-10-09T23:44:55.884Z,10.90
2018-10-09T23:47:25.812Z,10.68
2018-10-09T23:49:55.655Z,10.14
2018-10-09T23:52:25.562Z,10.25
2018-10-09T23:55:13.948Z,10.17
2018-10-09T23:57:49.908Z,9.86
